Time;durP1;ratioP1;P1;durP2;ratioP2;P2;SDS_P1;SDS_P2;PMS_P1;PMS_P2;Temp;Humidity;BMP_temperature;BMP_pressure;BME280_temperature;BME280_humidity;BME280_pressure;Samples;Min_cycle;Max_cycle;Signal;HPM_P1;HPM_P2
2021/11/13 00:01:09;;;;;;;65.25;26.83;;;;;;;2.40;100.00;100714.97;5094389;28;20047;-67
2021/11/13 00:03:38;;;;;;;74.82;27.00;;;;;;;2.43;100.00;100721.97;5094337;28;20078;-71
2021/11/13 00:06:08;;;;;;;57.13;25.40;;;;;;;2.51;100.00;100712.13;5094771;28;20040;-67
2021/11/13 00:08:36;;;;;;;72.20;25.02;;;;;;;2.46;100.00;100714.00;5093449;28;20055;-67
2021/11/13 00:11:06;;;;;;;61.83;26.38;;;;;;;2.42;100.00;100712.31;5094613;28;20101;-67
2021/11/13 00:13:36;;;;;;;56.90;24.88;;;;;;;2.49;100.00;100709.53;5094336;28;20477;-67
2021/11/13 00:16:05;;;;;;;53.72;25.15;;;;;;;2.47;100.00;100711.31;5094782;28;20109;-67
2021/11/13 00:18:35;;;;;;;55.78;24.77;;;;;;;2.60;100.00;100717.19;5094200;28;20040;-70
2021/11/13 00:21:04;;;;;;;58.00;24.13;;;;;;;2.58;100.00;100714.59;5094362;28;20458;-70
2021/11/13 00:23:34;;;;;;;56.65;22.73;;;;;;;2.43;100.00;100714.94;5094326;28;20044;-70
2021/11/13 00:26:03;;;;;;;65.53;25.15;;;;;;;2.43;100.00;100714.94;5093670;28;20048;-70
2021/11/13 00:28:32;;;;;;;75.50;24.80;;;;;;;2.42;100.00;100717.59;5094117;28;20049;-70
2021/11/13 00:31:00;;;;;;;72.07;25.13;;;;;;;2.41;100.00;100716.69;5093836;28;20055;-70
2021/11/13 00:33:29;;;;;;;71.25;24.58;;;;;;;2.24;100.00;100711.78;5093896;28;20461;-70
2021/11/13 00:35:57;;;;;;;66.05;24.20;;;;;;;2.32;100.00;100716.00;5093772;28;20122;-69
2021/11/13 00:38:28;;;;;;;57.58;24.00;;;;;;;2.38;100.00;100722.03;5094023;28;20470;-70
2021/11/13 00:41:00;;;;;;;59.67;24.35;;;;;;;2.37;100.00;100722.94;5093775;28;20044;-67
2021/11/13 00:43:28;;;;;;;58.78;22.90;;;;;;;2.35;100.00;100711.56;5093646;28;20044;-68
2021/11/13 00:45:56;;;;;;;73.65;24.73;;;;;;;2.27;100.00;100714.34;5093658;28;20396;-68
2021/11/13 00:48:24;;;;;;;63.95;24.77;;;;;;;2.22;100.00;100708.31;5094071;28;20044;-67
2021/11/13 00:50:52;;;;;;;109.45;25.20;;;;;;;2.29;100.00;100706.41;5093258;28;20040;-68
2021/11/13 00:53:21;;;;;;;62.22;23.55;;;;;;;2.23;100.00;100706.53;5093642;28;20443;-68
2021/11/13 00:55:49;;;;;;;51.97;23.05;;;;;;;2.31;100.00;100707.25;5093207;28;20077;-67
2021/11/13 00:58:19;;;;;;;53.50;23.98;;;;;;;2.28;100.00;100712.56;5093469;28;20047;-67
2021/11/13 01:00:48;;;;;;;57.50;25.83;;;;;;;2.28;100.00;100704.69;5093116;28;20040;-67
2021/11/13 01:03:16;;;;;;;68.90;25.27;;;;;;;2.19;100.00;100708.34;5093557;28;20040;-67
2021/11/13 01:05:45;;;;;;;74.88;25.73;;;;;;;2.19;100.00;100710.97;5093230;28;20044;-67
2021/11/13 01:08:13;;;;;;;62.38;24.88;;;;;;;2.12;100.00;100704.09;5093689;28;20040;-66
2021/11/13 01:10:42;;;;;;;73.85;25.05;;;;;;;2.19;100.00;100705.72;5093242;28;20443;-69
2021/11/13 01:13:10;;;;;;;69.93;24.92;;;;;;;2.07;100.00;100705.94;5093673;28;20070;-67
2021/11/13 01:15:40;;;;;;;66.00;24.83;;;;;;;2.05;100.00;100706.88;5093169;28;20451;-67
2021/11/13 01:18:08;;;;;;;76.55;24.20;;;;;;;2.03;100.00;100699.03;5093814;28;20046;-67
2021/11/13 01:20:37;;;;;;;72.43;24.67;;;;;;;2.04;100.00;100695.50;5093473;28;20036;-67
2021/11/13 01:23:05;;;;;;;73.75;25.17;;;;;;;2.11;100.00;100690.97;5092675;28;20085;-67
2021/11/13 01:25:35;;;;;;;64.88;24.65;;;;;;;2.11;100.00;100681.31;5093355;28;20370;-67
2021/11/13 01:28:03;;;;;;;81.78;26.27;;;;;;;2.01;100.00;100680.59;5093049;28;20898;-68
2021/11/13 01:30:31;;;;;;;77.90;26.48;;;;;;;1.94;100.00;100678.13;5093423;28;20048;-68
2021/11/13 01:33:01;;;;;;;105.63;26.45;;;;;;;1.94;100.00;100672.88;5093024;28;20047;-68
2021/11/13 01:35:30;;;;;;;88.40;26.52;;;;;;;1.85;100.00;100676.53;5093046;28;20044;-68
2021/11/13 01:37:58;;;;;;;69.35;26.52;;;;;;;1.92;100.00;100666.75;5092605;28;20048;-68
2021/11/13 01:40:27;;;;;;;74.60;25.65;;;;;;;2.04;100.00;100668.31;5093393;28;20448;-69
2021/11/13 01:42:56;;;;;;;73.57;26.13;;;;;;;2.00;100.00;100659.59;5092919;28;20071;-69
2021/11/13 01:45:27;;;;;;;92.10;26.98;;;;;;;1.93;100.00;100658.84;5093212;28;20132;-68
2021/11/13 01:47:56;;;;;;;81.45;26.88;;;;;;;1.90;100.00;100658.03;5092569;28;20075;-67
2021/11/13 01:50:33;;;;;;;82.15;25.73;;;;;;;1.97;100.00;100651.75;5093110;28;20047;-67
2021/11/13 01:53:01;;;;;;;80.18;27.98;;;;;;;1.98;100.00;100648.22;5092381;28;20044;-67
2021/11/13 01:55:34;;;;;;;80.78;27.60;;;;;;;2.04;100.00;100650.75;5093235;28;20079;-67
2021/11/13 01:58:03;;;;;;;86.72;28.15;;;;;;;2.13;100.00;100658.47;5092507;28;20044;-67
2021/11/13 02:00:35;;;;;;;86.93;28.27;;;;;;;2.18;100.00;100658.38;5092780;28;20048;-67
2021/11/13 02:03:05;;;;;;;62.30;26.13;;;;;;;2.19;100.00;100663.59;5092674;28;20131;-67
2021/11/13 02:05:34;;;;;;;81.75;27.13;;;;;;;2.19;100.00;100658.34;5092908;28;20036;-67
2021/11/13 02:08:03;;;;;;;79.10;27.65;;;;;;;2.17;100.00;100654.00;5092453;28;20048;-67
2021/11/13 02:10:33;;;;;;;64.22;27.02;;;;;;;2.18;100.00;100651.34;5092954;28;20055;-67
2021/11/13 02:13:02;;;;;;;96.10;27.23;;;;;;;2.18;100.00;100659.25;5092589;28;20097;-67
2021/11/13 02:15:31;;;;;;;101.70;28.23;;;;;;;2.21;100.00;100651.28;5093063;28;20048;-67
2021/11/13 02:18:01;;;;;;;95.35;27.27;;;;;;;2.24;100.00;100656.50;5094747;28;20051;-67
2021/11/13 02:20:33;;;;;;;77.45;26.23;;;;;;;2.27;100.00;100661.69;5096926;28;20123;-67
2021/11/13 02:23:05;;;;;;;75.82;26.00;;;;;;;2.21;100.00;100661.81;5096443;28;20076;-67
2021/11/13 02:25:34;;;;;;;96.75;28.10;;;;;;;2.18;100.00;100661.88;5096772;28;20374;-67
2021/11/13 02:28:03;;;;;;;97.43;26.85;;;;;;;2.17;100.00;100662.78;5095918;28;20086;-67
2021/11/13 02:30:32;;;;;;;72.95;26.77;;;;;;;2.20;100.00;100662.69;5096672;28;20050;-67
2021/11/13 02:33:00;;;;;;;75.13;27.05;;;;;;;2.15;100.00;100651.41;5096281;28;20044;-67
2021/11/13 02:35:32;;;;;;;74.50;26.45;;;;;;;2.21;100.00;100661.81;5096410;28;20048;-67
2021/11/13 02:38:10;;;;;;;76.28;26.70;;;;;;;2.21;100.00;100669.69;5096174;28;20051;-67
2021/11/13 02:40:38;;;;;;;74.72;25.25;;;;;;;2.20;100.00;100665.34;5096284;28;20047;-67
2021/11/13 02:43:07;;;;;;;78.88;26.13;;;;;;;2.26;100.00;100659.09;5095663;28;20032;-67
2021/11/13 02:45:36;;;;;;;77.88;25.63;;;;;;;2.25;100.00;100663.50;5096328;28;20040;-67
2021/11/13 02:48:05;;;;;;;73.30;25.48;;;;;;;2.21;100.00;100653.91;5095548;28;20131;-67
2021/11/13 02:50:36;;;;;;;66.22;24.27;;;;;;;2.28;100.00;100646.78;5096159;28;20067;-67
2021/11/13 02:53:12;;;;;;;85.38;26.85;;;;;;;2.26;100.00;100643.31;5095815;28;20051;-67
2021/11/13 02:55:41;;;;;;;81.32;27.25;;;;;;;2.28;100.00;100650.25;5096397;28;20074;-68
2021/11/13 02:58:10;;;;;;;75.13;25.88;;;;;;;2.37;100.00;100645.72;5095739;28;20040;-67
2021/11/13 03:00:39;;;;;;;86.93;26.83;;;;;;;2.40;100.00;100650.91;5095955;28;20040;-67
2021/11/13 03:03:07;;;;;;;81.20;26.20;;;;;;;2.35;100.00;100645.75;5095644;28;20093;-67
2021/11/13 03:05:46;;;;;;;92.57;27.23;;;;;;;2.37;100.00;100648.34;5096076;28;20044;-69
2021/11/13 03:08:21;;;;;;;83.32;27.23;;;;;;;2.45;100.00;100638.53;5095340;28;20105;-66
2021/11/13 03:10:50;;;;;;;90.80;26.70;;;;;;;2.50;100.00;100640.16;5096020;28;20089;-67
2021/11/13 03:13:18;;;;;;;88.03;26.17;;;;;;;2.43;100.00;100643.84;5095440;28;20044;-67
2021/11/13 03:15:48;;;;;;;90.47;28.23;;;;;;;2.45;100.00;100643.81;5095785;28;20048;-67
2021/11/13 03:18:16;;;;;;;90.82;28.13;;;;;;;2.44;100.00;100647.34;5095600;28;20059;-67
2021/11/13 03:20:47;;;;;;;94.00;27.08;;;;;;;2.44;100.00;100647.34;5095646;28;20089;-67
2021/11/13 03:23:17;;;;;;;92.07;29.08;;;;;;;2.43;100.00;100645.59;5095530;28;20079;-67
2021/11/13 03:25:50;;;;;;;93.43;29.45;;;;;;;2.45;100.00;100647.31;5095727;28;20389;-66
2021/11/13 03:28:20;;;;;;;91.20;27.13;;;;;;;2.47;100.00;100634.09;5094754;28;20047;-65
2021/11/13 03:30:49;;;;;;;93.93;28.52;;;;;;;2.49;100.00;100637.56;5095184;28;20047;-67
2021/11/13 03:33:18;;;;;;;92.75;29.20;;;;;;;2.52;100.00;100634.88;5095340;28;20043;-67
2021/11/13 03:35:48;;;;;;;93.53;29.42;;;;;;;2.65;100.00;100633.72;5095308;28;20040;-66
2021/11/13 03:38:17;;;;;;;89.00;28.13;;;;;;;2.63;100.00;100626.75;5094956;28;20040;-68
2021/11/13 03:40:47;;;;;;;91.95;29.60;;;;;;;2.63;100.00;100629.38;5095431;28;20046;-67
2021/11/13 03:43:16;;;;;;;89.25;29.75;;;;;;;2.79;100.00;100622.84;5094552;28;20047;-68
2021/11/13 03:45:46;;;;;;;85.65;28.08;;;;;;;2.92;100.00;100620.81;5095115;28;20133;-68
2021/11/13 03:48:14;;;;;;;85.60;28.55;;;;;;;2.95;100.00;100633.91;5094709;28;20043;-68
2021/11/13 03:50:43;;;;;;;76.43;27.75;;;;;;;2.98;100.00;100626.81;5095055;28;20051;-68
2021/11/13 03:53:12;;;;;;;80.45;28.02;;;;;;;2.96;100.00;100633.88;5094136;28;20056;-68
2021/11/13 03:55:40;;;;;;;75.88;26.17;;;;;;;2.98;100.00;100626.81;5095188;28;20218;-67
2021/11/13 03:58:09;;;;;;;82.35;27.42;;;;;;;3.09;100.00;100623.94;5094635;28;20119;-67
2021/11/13 04:00:37;;;;;;;82.15;27.52;;;;;;;2.99;100.00;100622.41;5094728;28;20047;-67
2021/11/13 04:03:06;;;;;;;83.90;26.63;;;;;;;2.99;100.00;100625.03;5094484;28;20464;-67
2021/11/13 04:05:35;;;;;;;74.15;26.17;;;;;;;2.85;100.00;100620.09;5094724;28;20472;-68
2021/11/13 04:08:04;;;;;;;68.72;26.63;;;;;;;2.85;100.00;100622.72;5094063;28;20047;-68
2021/11/13 04:10:34;;;;;;;75.65;27.98;;;;;;;2.94;100.00;100613.75;5094756;28;20047;-68
2021/11/13 04:13:02;;;;;;;70.78;25.98;;;;;;;2.98;100.00;100618.03;5094300;28;20431;-68
2021/11/13 04:15:30;;;;;;;68.88;25.80;;;;;;;2.98;100.00;100618.03;5094520;28;20040;-68
2021/11/13 04:17:59;;;;;;;73.57;27.10;;;;;;;2.94;100.00;100616.38;5093999;28;20098;-68
2021/11/13 04:20:27;;;;;;;77.88;26.38;;;;;;;2.85;100.00;100617.47;5094712;28;20040;-68
2021/11/13 04:22:55;;;;;;;80.35;26.25;;;;;;;2.79;100.00;100618.44;5094383;28;20044;-72
2021/11/13 04:25:26;;;;;;;84.30;27.40;;;;;;;2.78;100.00;100606.19;5094044;28;20071;-67
2021/11/13 04:27:56;;;;;;;76.93;26.45;;;;;;;2.80;100.00;100599.13;5094284;28;20064;-67
2021/11/13 04:30:24;;;;;;;75.30;26.35;;;;;;;2.86;100.00;100608.66;5094240;28;20047;-67
2021/11/13 04:32:53;;;;;;;81.45;26.55;;;;;;;2.92;100.00;100607.66;5094218;28;20064;-67
2021/11/13 04:35:23;;;;;;;74.10;26.42;;;;;;;2.93;100.00;100612.03;5094068;28;20499;-67
2021/11/13 04:37:54;;;;;;;80.88;27.25;;;;;;;2.90;100.00;100599.78;5093938;28;20508;-67
2021/11/13 04:40:26;;;;;;;77.50;28.15;;;;;;;2.74;100.00;100604.53;5093959;28;20050;-67
2021/11/13 04:42:56;;;;;;;82.53;27.40;;;;;;;2.83;100.00;100604.31;5094169;28;20131;-67
2021/11/13 04:45:24;;;;;;;80.20;28.48;;;;;;;2.76;100.00;100594.81;5093580;28;20127;-67
2021/11/13 04:47:53;;;;;;;80.45;27.65;;;;;;;2.76;100.00;100607.13;5093636;28;20040;-67
2021/11/13 04:50:22;;;;;;;84.57;27.90;;;;;;;2.70;100.00;100607.25;5093572;28;20040;-68
2021/11/13 04:52:51;;;;;;;77.05;26.90;;;;;;;2.75;100.00;100606.25;5093467;28;20081;-68
2021/11/13 04:55:22;;;;;;;68.38;24.58;;;;;;;2.83;100.00;100608.72;5093611;28;20044;-68
2021/11/13 04:57:50;;;;;;;69.45;24.35;;;;;;;2.90;100.00;100605.06;5093793;28;20492;-68
2021/11/13 05:00:23;;;;;;;68.95;24.77;;;;;;;2.81;100.00;100602.63;5093173;28;20040;-66
2021/11/13 05:02:52;;;;;;;72.93;25.30;;;;;;;2.80;100.00;100608.81;5093764;28;20044;-66
2021/11/13 05:05:21;;;;;;;71.30;26.08;;;;;;;2.80;100.00;100608.81;5093216;28;20071;-66
2021/11/13 05:07:50;;;;;;;72.95;26.77;;;;;;;2.77;100.00;100596.53;5093351;28;20040;-66
2021/11/13 05:10:19;;;;;;;69.90;24.92;;;;;;;2.84;100.00;100610.47;5092953;28;20065;-66
2021/11/13 05:12:48;;;;;;;68.47;25.23;;;;;;;2.90;100.00;100610.34;5092199;28;20059;-66
2021/11/13 05:15:17;;;;;;;71.25;25.70;;;;;;;2.83;100.00;100604.31;5093200;28;20044;-67
2021/11/13 05:17:47;;;;;;;75.85;26.48;;;;;;;2.87;100.00;100600.69;5093667;28;20074;-67
2021/11/13 05:20:18;;;;;;;70.60;26.38;;;;;;;2.87;100.00;100610.38;5092846;28;20094;-67
2021/11/13 05:22:49;;;;;;;70.03;27.25;;;;;;;2.95;100.00;100607.56;5093609;28;20048;-67
2021/11/13 05:25:20;;;;;;;79.25;26.52;;;;;;;3.01;100.00;100612.72;5092740;28;20119;-67
2021/11/13 05:27:49;;;;;;;76.93;26.80;;;;;;;3.04;100.00;100612.63;5093456;28;20040;-67
2021/11/13 05:30:19;;;;;;;77.20;26.48;;;;;;;3.08;100.00;100612.50;5092703;28;20062;-67
2021/11/13 05:32:49;;;;;;;68.60;25.13;;;;;;;2.98;100.00;100596.94;5093557;28;20070;-67
2021/11/13 05:35:18;;;;;;;75.13;26.35;;;;;;;2.88;100.00;100605.06;5093038;28;20048;-67
2021/11/13 05:37:48;;;;;;;69.00;25.77;;;;;;;2.87;100.00;100605.97;5092933;28;20048;-67
2021/11/13 05:40:17;;;;;;;74.18;25.90;;;;;;;2.90;100.00;100609.47;5093129;28;20056;-68
2021/11/13 05:42:51;;;;;;;74.00;25.95;;;;;;;2.87;100.00;100620.91;5093344;28;20036;-67
2021/11/13 05:45:19;;;;;;;76.78;26.70;;;;;;;2.88;100.00;100626.16;5092752;28;20044;-68
2021/11/13 05:47:49;;;;;;;67.97;25.80;;;;;;;2.94;100.00;100616.38;5093237;28;20093;-67
2021/11/13 05:50:19;;;;;;;71.22;27.25;;;;;;;2.83;100.00;100620.13;5092642;28;20047;-68
2021/11/13 05:52:49;;;;;;;69.80;25.95;;;;;;;3.00;100.00;100617.13;5094908;28;20062;-68
2021/11/13 05:55:19;;;;;;;68.90;25.17;;;;;;;3.07;100.00;100623.09;5095613;28;20070;-67
2021/11/13 05:57:47;;;;;;;71.90;25.08;;;;;;;3.16;100.00;100620.22;5097131;28;20036;-68
2021/11/13 06:00:18;;;;;;;66.18;25.45;;;;;;;3.06;100.00;100621.34;5096873;28;20138;-68
2021/11/13 06:02:49;;;;;;;67.35;24.73;;;;;;;3.07;100.00;100623.09;5096850;28;20040;-68
2021/11/13 06:05:17;;;;;;;66.68;25.95;;;;;;;2.99;100.00;100625.94;5096516;28;20389;-67
2021/11/13 06:07:49;;;;;;;65.43;25.92;;;;;;;3.06;100.00;100621.34;5097074;28;20094;-67
2021/11/13 06:10:18;;;;;;;65.68;25.05;;;;;;;3.15;100.00;100636.97;5096553;28;20079;-68
2021/11/13 06:12:47;;;;;;;70.88;26.55;;;;;;;3.17;100.00;100624.59;5096855;28;20210;-68
2021/11/13 06:15:15;;;;;;;68.60;25.60;;;;;;;3.13;100.00;100628.22;5096474;28;20047;-68
2021/11/13 06:17:45;;;;;;;69.78;26.42;;;;;;;3.08;100.00;100630.09;5095462;28;20485;-69
2021/11/13 06:20:15;;;;;;;72.10;26.60;;;;;;;3.10;100.00;100633.59;5096495;28;20408;-69
2021/11/13 06:22:44;;;;;;;63.63;26.13;;;;;;;3.12;100.00;100637.91;5096699;28;20473;-69
2021/11/13 06:25:14;;;;;;;61.13;24.38;;;;;;;3.22;100.00;100635.06;5096332;28;20044;-69
2021/11/13 06:27:44;;;;;;;66.78;24.90;;;;;;;3.20;100.00;100644.78;5096684;28;20118;-69
2021/11/13 06:30:14;;;;;;;71.57;25.52;;;;;;;3.15;100.00;100642.22;5096363;28;20047;-69
2021/11/13 06:32:43;;;;;;;67.70;27.48;;;;;;;3.22;100.00;100649.09;5096315;28;20048;-68
2021/11/13 06:35:13;;;;;;;63.90;25.25;;;;;;;3.38;100.00;100650.47;5096018;28;20437;-68
2021/11/13 06:37:43;;;;;;;59.85;24.85;;;;;;;3.33;100.00;100640.94;5096135;28;20048;-67
2021/11/13 06:40:14;;;;;;;58.85;24.90;;;;;;;3.38;100.00;100663.66;5095495;28;20530;-68
2021/11/13 06:42:43;;;;;;;63.47;25.92;;;;;;;3.35;100.00;100666.34;5095933;28;20456;-67
2021/11/13 06:45:12;;;;;;;61.50;25.77;;;;;;;3.41;100.00;100668.84;5095509;28;20040;-68
2021/11/13 06:47:41;;;;;;;62.78;25.95;;;;;;;3.46;100.00;100655.53;5095895;28;20044;-67
2021/11/13 06:50:11;;;;;;;64.82;26.20;;;;;;;3.40;100.00;100659.22;5095125;28;20477;-67
2021/11/13 06:52:40;;;;;;;67.00;26.33;;;;;;;3.43;100.00;100672.31;5095447;28;20044;-67
2021/11/13 06:55:11;;;;;;;65.00;26.25;;;;;;;3.37;100.00;100675.09;5095311;28;20051;-67
2021/11/13 06:57:40;;;;;;;66.30;26.77;;;;;;;3.43;100.00;100667.03;5096155;28;20036;-66
2021/11/13 07:00:11;;;;;;;66.10;26.70;;;;;;;3.44;100.00;100665.25;5095027;28;20127;-66
2021/11/13 07:02:41;;;;;;;65.13;26.27;;;;;;;3.53;100.00;100666.81;5095574;28;20101;-66
2021/11/13 07:05:11;;;;;;;66.65;26.38;;;;;;;3.49;100.00;100670.44;5094842;28;20080;-66
2021/11/13 07:07:42;;;;;;;66.68;26.92;;;;;;;3.48;100.00;100677.50;5096333;28;20072;-66
2021/11/13 07:10:15;;;;;;;66.20;25.52;;;;;;;3.49;100.00;100670.44;5095413;28;20040;-66
2021/11/13 07:12:43;;;;;;;67.28;27.48;;;;;;;3.52;100.00;100678.28;5095529;28;20036;-67
2021/11/13 07:15:13;;;;;;;64.90;26.23;;;;;;;3.51;100.00;100687.94;5095269;28;20047;-67
2021/11/13 07:17:42;;;;;;;63.28;26.88;;;;;;;3.56;100.00;100682.56;5095766;28;20454;-66
2021/11/13 07:20:12;;;;;;;69.20;27.55;;;;;;;3.55;100.00;100686.09;5095457;28;20115;-66
2021/11/13 07:22:42;;;;;;;66.97;27.02;;;;;;;3.61;100.00;100680.69;5095409;28;20077;-66
2021/11/13 07:25:14;;;;;;;67.50;27.77;;;;;;;3.58;100.00;100678.13;5094771;28;20442;-66
2021/11/13 07:27:45;;;;;;;67.07;27.67;;;;;;;3.65;100.00;100682.31;5095185;28;20048;-67
2021/11/13 07:30:16;;;;;;;67.68;26.10;;;;;;;3.76;100.00;100687.31;5095089;28;20397;-67
2021/11/13 07:32:45;;;;;;;66.82;27.30;;;;;;;3.73;100.00;100680.38;5094792;28;20070;-67
2021/11/13 07:35:13;;;;;;;63.03;24.90;;;;;;;3.72;100.00;100686.56;5094628;28;20036;-66
2021/11/13 07:37:44;;;;;;;64.30;26.08;;;;;;;3.71;100.00;100683.06;5095308;28;20040;-66
2021/11/13 07:40:14;;;;;;;61.38;24.58;;;;;;;3.83;100.00;100686.28;5094585;28;20043;-67
2021/11/13 07:42:42;;;;;;;59.38;24.23;;;;;;;3.87;100.00;100687.94;5094963;28;20046;-66
2021/11/13 07:45:11;;;;;;;62.25;24.77;;;;;;;3.89;100.00;100691.41;5094401;28;20040;-72
2021/11/13 07:47:41;;;;;;;65.25;25.60;;;;;;;3.77;100.00;100684.69;5094982;28;20040;-66
2021/11/13 07:50:12;;;;;;;66.50;26.17;;;;;;;3.78;100.00;100691.69;5094739;28;20087;-68
2021/11/13 07:52:42;;;;;;;61.33;25.33;;;;;;;3.74;100.00;100693.50;5094653;28;20036;-67
2021/11/13 07:55:10;;;;;;;60.92;23.55;;;;;;;3.76;100.00;100685.56;5098448;28;20043;-66
2021/11/13 07:57:40;;;;;;;55.97;24.23;;;;;;;3.83;100.00;100688.91;5127889;27;20062;-65
2021/11/13 08:00:11;;;;;;;69.28;25.90;;;;;;;3.86;100.00;100689.72;5094554;28;20043;-66
2021/11/13 08:02:40;;;;;;;60.88;24.23;;;;;;;3.88;100.00;100689.69;5094700;28;20063;-67
2021/11/13 08:05:10;;;;;;;58.78;24.70;;;;;;;3.91;100.00;100690.47;5094724;28;20036;-65
2021/11/13 08:07:39;;;;;;;57.60;24.02;;;;;;;3.97;100.00;100692.94;5094689;28;20040;-66
2021/11/13 08:10:09;;;;;;;61.28;24.95;;;;;;;3.99;100.00;100701.69;5094216;28;20542;-66
2021/11/13 08:12:39;;;;;;;56.20;24.38;;;;;;;4.01;100.00;100693.72;5094726;28;20044;-67
2021/11/13 08:15:11;;;;;;;57.13;23.45;;;;;;;4.06;100.00;100691.84;5093875;28;20507;-67
2021/11/13 08:17:41;;;;;;;57.78;23.30;;;;;;;4.06;100.00;100688.34;5094520;28;20052;-67
2021/11/13 08:20:11;;;;;;;60.53;23.33;;;;;;;4.02;100.00;100685.75;5094393;28;20145;-67
2021/11/13 08:22:41;;;;;;;62.60;23.45;;;;;;;4.06;100.00;100690.97;5094279;28;20083;-67
2021/11/13 08:25:14;;;;;;;56.80;22.92;;;;;;;4.12;100.00;100686.38;5094200;28;20112;-67
2021/11/13 08:27:44;;;;;;;52.90;22.30;;;;;;;4.12;100.00;100681.09;5094029;28;20047;-68
2021/11/13 08:30:15;;;;;;;54.25;21.35;;;;;;;4.17;100.00;100687.13;5094038;28;20040;-67
2021/11/13 08:32:47;;;;;;;51.28;21.05;;;;;;;4.30;100.00;100685.03;5093957;28;20064;-68
2021/11/13 08:35:17;;;;;;;61.13;23.88;;;;;;;4.34;100.00;100686.66;5093679;28;20094;-65
2021/11/13 08:37:46;;;;;;;58.45;22.98;;;;;;;4.33;100.00;100671.72;5094019;28;20075;-67
2021/11/13 08:40:15;;;;;;;54.88;22.00;;;;;;;4.52;100.00;100665.00;5093904;28;20491;-69
2021/11/13 08:42:44;;;;;;;54.58;22.20;;;;;;;4.47;100.00;100659.00;5093776;28;20127;-67
2021/11/13 08:45:14;;;;;;;57.45;22.60;;;;;;;4.54;100.00;100673.78;5093950;28;20127;-67
2021/11/13 08:47:45;;;;;;;56.05;22.88;;;;;;;4.53;100.00;100672.00;5093652;28;20042;-67
2021/11/13 08:50:18;;;;;;;54.95;22.40;;;;;;;4.53;100.00;100677.31;5093698;28;20439;-68
2021/11/13 08:52:48;;;;;;;59.20;24.20;;;;;;;4.49;100.00;100673.03;5093148;28;20127;-66
2021/11/13 08:55:19;;;;;;;55.53;23.17;;;;;;;4.52;100.00;100680.00;5093314;28;20040;-70
2021/11/13 08:57:48;;;;;;;51.60;22.65;;;;;;;4.50;100.00;100674.75;5093817;28;20086;-64
2021/11/13 09:00:24;;;;;;;57.53;23.33;;;;;;;4.44;100.00;100677.59;5093693;28;20043;-71
2021/11/13 09:02:54;;;;;;;57.85;23.27;;;;;;;4.38;100.00;100671.59;5093594;28;20044;-65
2021/11/13 09:05:22;;;;;;;52.80;22.58;;;;;;;4.54;100.00;100673.78;5092902;28;20097;-65
2021/11/13 09:07:50;;;;;;;49.03;21.80;;;;;;;4.59;100.00;100671.84;5093126;28;20126;-65
2021/11/13 09:10:18;;;;;;;53.40;22.20;;;;;;;4.60;100.00;100673.59;5092831;28;20044;-66
2021/11/13 09:12:47;;;;;;;54.03;22.05;;;;;;;4.63;100.00;100671.75;5093395;28;20260;-65
2021/11/13 09:15:24;;;;;;;59.05;24.60;;;;;;;4.50;100.00;100677.41;5093173;28;20044;-66
2021/11/13 09:17:55;;;;;;;51.55;21.88;;;;;;;4.65;100.00;100669.97;5088872;28;20127;-72
2021/11/13 09:20:24;;;;;;;62.22;25.08;;;;;;;4.59;100.00;100674.50;5090922;28;20481;-67
2021/11/13 09:22:52;;;;;;;66.28;27.42;;;;;;;4.59;100.00;100671.00;5092864;28;20094;-67
2021/11/13 09:25:22;;;;;;;62.33;26.25;;;;;;;4.66;100.00;100676.97;5092761;28;20048;-68
2021/11/13 09:27:50;;;;;;;66.57;26.13;;;;;;;4.68;100.00;100672.50;5091010;28;20040;-67
2021/11/13 09:30:22;;;;;;;68.65;25.38;;;;;;;4.59;100.00;100679.78;5092458;28;20040;-67
2021/11/13 09:32:50;;;;;;;61.40;23.40;;;;;;;4.58;100.00;100680.69;5092740;28;20071;-69
2021/11/13 09:35:19;;;;;;;64.07;24.45;;;;;;;4.53;100.00;100677.31;5092454;28;20101;-69
2021/11/13 09:37:48;;;;;;;61.13;24.95;;;;;;;4.51;100.00;100679.13;5091665;28;20044;-68
2021/11/13 09:40:19;;;;;;;61.92;24.42;;;;;;;4.57;100.00;100673.69;5092492;28;20067;-67
2021/11/13 09:42:49;;;;;;;59.00;24.45;;;;;;;4.58;100.00;100679.84;5091542;28;20067;-69
2021/11/13 09:45:18;;;;;;;56.03;24.10;;;;;;;4.68;100.00;100676.00;5092652;28;20046;-69
2021/11/13 09:47:52;;;;;;;57.75;23.15;;;;;;;4.57;100.00;100678.09;5089880;28;20048;-66
2021/11/13 09:50:24;;;;;;;66.22;26.27;;;;;;;4.56;100.00;100677.25;5092010;28;20043;-68
2021/11/13 09:52:52;;;;;;;65.80;25.10;;;;;;;4.50;100.00;100673.88;5091221;28;20044;-67
2021/11/13 09:55:22;;;;;;;59.97;24.35;;;;;;;4.66;100.00;100671.69;5091310;28;20044;-67
2021/11/13 09:57:51;;;;;;;62.72;25.35;;;;;;;4.52;100.00;100670.28;5091697;28;20102;-69
2021/11/13 10:00:26;;;;;;;61.63;24.70;;;;;;;4.46;100.00;100670.47;5092199;28;20040;-69
2021/11/13 10:02:57;;;;;;;56.10;25.42;;;;;;;4.51;100.00;100665.06;5091711;28;20078;-67
2021/11/13 10:05:26;;;;;;;61.63;24.92;;;;;;;4.63;100.00;100661.19;5092067;28;20085;-68
2021/11/13 10:07:54;;;;;;;56.80;24.17;;;;;;;4.69;100.00;100663.66;5091929;28;20036;-68
2021/11/13 10:10:32;;;;;;;58.33;24.38;;;;;;;4.84;100.00;100663.22;5092137;28;20056;-67
2021/11/13 10:13:02;;;;;;;58.53;23.98;;;;;;;4.77;100.00;100645.81;5091906;28;20472;-66
2021/11/13 10:15:34;;;;;;;56.63;24.50;;;;;;;4.89;100.00;100653.34;5092156;28;20063;-68
2021/11/13 10:18:11;;;;;;;58.28;23.90;;;;;;;4.79;100.00;100650.13;5091711;28;20058;-67
2021/11/13 10:20:44;;;;;;;67.45;24.42;;;;;;;4.89;100.00;100643.66;5092872;28;20051;-69
2021/11/13 10:23:20;;;;;;;57.83;23.80;;;;;;;4.99;100.00;100632.78;5092409;28;20465;-69
2021/11/13 10:25:55;;;;;;;;;;;;;;;4.99;100.00;100638.94;5091450;28;20040;-66
2021/11/13 10:28:24;;;;;;;56.40;21.13;;;;;;;5.11;100.00;100625.31;5091635;28;20022;-66
2021/11/13 10:31:06;;;;;;;52.33;22.15;;;;;;;5.08;100.00;100628.06;5092141;28;20496;-68
2021/11/13 10:33:36;;;;;;;60.15;24.73;;;;;;;5.09;100.00;100623.66;5091720;28;20090;-67
2021/11/13 10:36:08;;;;;;;59.28;24.60;;;;;;;5.16;100.00;100620.78;5092192;28;20236;-69
2021/11/13 10:38:37;;;;;;;54.83;22.38;;;;;;;5.05;100.00;100617.59;5093251;28;20405;-67
2021/11/13 10:41:08;;;;;;;57.33;21.67;;;;;;;5.17;100.00;100625.13;5095529;28;20044;-68
2021/11/13 10:43:39;;;;;;;58.67;24.52;;;;;;;5.08;100.00;100617.50;5095191;28;20040;-68
2021/11/13 10:46:10;;;;;;;57.60;22.25;;;;;;;5.05;100.00;100616.75;5093816;28;20051;-69
2021/11/13 10:48:42;;;;;;;58.78;22.65;;;;;;;5.15;100.00;100624.34;5093897;28;20123;-68
2021/11/13 10:51:12;;;;;;;53.42;22.05;;;;;;;5.05;100.00;100612.31;5095318;28;20040;-69
2021/11/13 10:53:43;;;;;;;60.13;23.23;;;;;;;5.10;100.00;100607.72;5094885;28;20067;-68
2021/11/13 10:56:15;;;;;;;48.42;20.15;;;;;;;5.10;100.00;100612.16;5095494;28;20032;-68
2021/11/13 10:58:51;;;;;;;54.53;21.63;;;;;;;5.00;100.00;100606.28;5094996;28;20050;-67
2021/11/13 11:01:38;;;;;;;56.78;21.92;;;;;;;5.05;100.00;100612.31;5095481;28;20377;-70
2021/11/13 11:04:16;;;;;;;52.75;20.52;;;;;;;5.06;100.00;100600.81;5094984;28;20059;-68
2021/11/13 11:06:49;;;;;;;56.70;20.55;;;;;;;5.06;100.00;100598.19;5094856;28;20130;-69
2021/11/13 11:09:23;;;;;;;48.42;21.33;;;;;;;4.91;100.00;100598.66;5095103;28;20040;-67
2021/11/13 11:11:54;;;;;;;52.95;21.98;;;;;;;5.00;100.00;100603.66;5094816;28;20388;-67
2021/11/13 11:14:24;;;;;;;56.83;24.20;;;;;;;4.91;100.00;100601.28;5094923;28;20062;-68
2021/11/13 11:16:54;;;;;;;55.60;23.80;;;;;;;5.01;100.00;100600.09;5094150;28;20051;-66
2021/11/13 11:19:27;;;;;;;60.08;24.90;;;;;;;5.01;100.00;100589.50;5095083;28;20075;-67
2021/11/13 11:22:04;;;;;;;54.07;22.30;;;;;;;4.95;100.00;100589.72;5094807;28;20542;-67